createdAt,value
2023-01-11T00:01:56.643Z,98270.56
2023-01-11T00:04:30.558Z,98263.31
2023-01-11T00:07:01.069Z,98262.69
2023-01-11T00:09:35.501Z,98257.03
2023-01-11T00:12:06.085Z,98248.66
2023-01-11T00:14:36.141Z,98246.00
2023-01-11T00:17:06.264Z,98242.22
2023-01-11T00:19:36.446Z,98240.66
2023-01-11T00:22:06.689Z,98248.56
2023-01-11T00:24:39.411Z,98245.38
2023-01-11T00:27:09.773Z,98244.94
2023-01-11T00:29:40.060Z,98256.00
2023-01-11T00:32:10.271Z,98257.75
2023-01-11T00:34:40.511Z,98249.81
2023-01-11T00:37:10.866Z,98239.25
2023-01-11T00:39:43.478Z,98233.88
2023-01-11T00:42:27.301Z,98232.91
2023-01-11T00:45:10.098Z,98222.00
2023-01-11T00:47:59.073Z,98219.78
2023-01-11T00:50:32.554Z,98209.66
2023-01-11T00:53:02.843Z,98207.75
2023-01-11T00:55:36.697Z,98205.19
2023-01-11T00:58:08.263Z,98205.53
2023-01-11T01:00:39.363Z,98203.66
2023-01-11T01:03:09.564Z,98212.16
2023-01-11T01:05:41.644Z,98195.75
2023-01-11T01:08:11.887Z,98203.03
2023-01-11T01:10:44.714Z,98191.16
2023-01-11T01:13:27.324Z,98187.19
2023-01-11T01:16:01.331Z,98185.78
2023-01-11T01:18:31.528Z,98192.25
2023-01-11T01:21:01.905Z,98193.19
2023-01-11T01:23:31.933Z,98186.56
2023-01-11T01:26:06.587Z,98194.13
2023-01-11T01:28:36.856Z,98185.91
2023-01-11T01:31:06.903Z,98193.34
2023-01-11T01:33:37.289Z,98190.63
2023-01-11T01:36:08.681Z,98190.31
2023-01-11T01:38:39.040Z,98190.63
2023-01-11T01:41:13.888Z,98193.38
2023-01-11T01:43:54.967Z,98188.44
2023-01-11T01:46:30.397Z,98192.91
2023-01-11T01:49:07.149Z,98194.31
2023-01-11T01:51:45.310Z,98185.91
2023-01-11T01:54:21.260Z,98176.94
2023-01-11T01:56:59.408Z,98175.66
2023-01-11T01:59:34.469Z,98171.69
2023-01-11T02:02:06.732Z,98159.97
2023-01-11T02:04:44.411Z,98166.91
2023-01-11T02:07:20.911Z,98158.38
2023-01-11T02:09:59.321Z,98161.50
2023-01-11T02:12:38.393Z,98158.66
2023-01-11T02:15:12.528Z,98148.88
2023-01-11T02:17:42.826Z,98143.19
2023-01-11T02:20:45.840Z,98130.53
2023-01-11T02:24:26.902Z,98132.44
2023-01-11T02:27:31.530Z,98130.88
2023-01-11T02:30:21.820Z,98132.31
2023-01-11T02:33:06.865Z,98136.28
2023-01-11T02:35:49.655Z,98125.50
2023-01-11T02:38:33.424Z,98122.03
2023-01-11T02:41:11.760Z,98117.91
2023-01-11T02:44:09.872Z,98110.81
2023-01-11T02:46:51.431Z,98113.50
2023-01-11T02:49:59.339Z,98101.19
2023-01-11T02:52:41.518Z,98111.94
2023-01-11T02:55:16.359Z,98113.19
2023-01-11T02:57:49.979Z,98116.34
2023-01-11T03:00:23.090Z,98107.19
2023-01-11T03:03:13.706Z,98112.19
2023-01-11T03:05:51.717Z,98100.81
2023-01-11T03:08:40.978Z,98099.50
2023-01-11T03:11:37.132Z,98104.56
2023-01-11T03:14:20.530Z,98112.16
2023-01-11T03:17:05.410Z,98104.88
2023-01-11T03:19:46.476Z,98109.78
2023-01-11T03:22:28.780Z,98102.00
2023-01-11T03:25:13.076Z,98109.91
2023-01-11T03:27:56.618Z,98118.78
2023-01-11T03:30:36.836Z,98106.88
2023-01-11T03:33:13.489Z,98110.03
2023-01-11T03:35:56.705Z,98109.56
2023-01-11T03:38:35.340Z,98115.59
2023-01-11T03:41:12.798Z,98111.78
2023-01-11T03:43:46.730Z,98113.63
2023-01-11T03:46:23.386Z,98117.47
2023-01-11T03:48:59.621Z,98105.63
2023-01-11T03:51:38.512Z,98104.22
2023-01-11T03:54:12.971Z,98101.72
2023-01-11T03:56:59.343Z,98090.06
2023-01-11T03:59:30.688Z,98090.56
2023-01-11T04:02:02.187Z,98081.25
2023-01-11T04:04:32.573Z,98081.59
2023-01-11T04:07:05.408Z,98078.25
2023-01-11T04:09:38.138Z,98069.88
2023-01-11T04:12:09.195Z,98066.72
2023-01-11T04:14:39.296Z,98067.34
2023-01-11T04:17:09.422Z,98064.50
2023-01-11T04:19:39.490Z,98065.75
2023-01-11T04:22:12.296Z,98071.75
2023-01-11T04:24:42.631Z,98066.72
2023-01-11T04:27:12.941Z,98066.06
2023-01-11T04:29:43.029Z,98059.75
2023-01-11T04:32:13.179Z,98061.97
2023-01-11T04:34:43.289Z,98058.63
2023-01-11T04:37:16.241Z,98049.00
2023-01-11T04:39:46.247Z,98055.31
2023-01-11T04:42:19.462Z,98043.47
2023-01-11T04:44:50.768Z,98040.00
2023-01-11T04:47:23.768Z,98055.50
2023-01-11T04:49:54.481Z,98053.75
2023-01-11T04:52:27.700Z,98052.78
2023-01-11T04:54:57.748Z,98053.25
2023-01-11T04:57:28.132Z,98050.13
2023-01-11T04:59:58.395Z,98042.53
2023-01-11T05:02:28.462Z,98037.13
2023-01-11T05:04:58.615Z,98037.59
2023-01-11T05:07:31.326Z,98032.81
2023-01-11T05:10:01.391Z,98030.41
2023-01-11T05:12:32.294Z,98015.34
2023-01-11T05:15:02.397Z,98013.59
2023-01-11T05:17:32.547Z,98016.00
2023-01-11T05:20:02.691Z,98014.56
2023-01-11T05:22:35.725Z,98016.09
2023-01-11T05:25:05.957Z,98017.34
2023-01-11T05:27:36.476Z,98015.78
2023-01-11T05:30:07.573Z,98009.81
2023-01-11T05:32:37.996Z,98005.81
2023-01-11T05:35:11.232Z,97999.69
2023-01-11T05:37:44.659Z,97993.38
2023-01-11T05:40:15.990Z,98005.38
2023-01-11T05:42:49.148Z,98003.97
2023-01-11T05:45:29.102Z,98005.06
2023-01-11T05:47:59.302Z,98013.09
2023-01-11T05:50:30.076Z,98015.81
2023-01-11T05:53:04.288Z,98016.13
2023-01-11T05:55:34.427Z,98011.06
2023-01-11T05:58:04.699Z,98012.94
2023-01-11T06:00:34.858Z,98009.31
2023-01-11T06:03:05.074Z,98007.56
2023-01-11T06:05:38.838Z,98007.88
2023-01-11T06:08:12.497Z,98005.38
2023-01-11T06:10:43.220Z,98010.44
2023-01-11T06:13:25.938Z,98007.00
2023-01-11T06:15:56.612Z,97995.94
2023-01-11T06:18:26.954Z,97983.59
2023-01-11T06:20:59.290Z,97987.09
2023-01-11T06:23:35.712Z,97988.81
2023-01-11T06:26:07.398Z,97968.28
2023-01-11T06:28:37.904Z,97960.22
2023-01-11T06:31:09.262Z,97956.78
2023-01-11T06:33:40.168Z,97963.38
2023-01-11T06:36:13.486Z,97955.34
2023-01-11T06:38:47.307Z,97960.41
2023-01-11T06:41:17.644Z,97961.19
2023-01-11T06:43:47.829Z,97965.28
2023-01-11T06:46:19.675Z,97977.28
2023-01-11T06:48:50.550Z,97985.50
2023-01-11T06:51:20.991Z,97968.09
2023-01-11T06:53:53.843Z,97962.72
2023-01-11T06:56:24.269Z,97965.88
2023-01-11T06:58:54.270Z,97955.09
2023-01-11T07:01:25.124Z,97959.38
2023-01-11T07:03:55.367Z,97948.50
2023-01-11T07:06:25.877Z,97943.16
2023-01-11T07:08:58.658Z,97951.97
2023-01-11T07:11:28.817Z,97951.50
2023-01-11T07:13:59.188Z,97944.84
2023-01-11T07:16:29.659Z,97947.56
2023-01-11T07:18:59.938Z,97946.31
2023-01-11T07:21:30.112Z,97945.97
2023-01-11T07:24:03.135Z,97943.66
2023-01-11T07:26:33.190Z,97948.22
2023-01-11T07:29:04.638Z,97946.03
2023-01-11T07:31:34.674Z,97944.78
2023-01-11T07:34:04.970Z,97939.09
2023-01-11T07:36:39.504Z,97942.38
2023-01-11T07:39:12.646Z,97946.66
2023-01-11T07:41:55.187Z,97938.25
2023-01-11T07:44:26.290Z,97945.38
2023-01-11T07:46:56.926Z,97937.59
2023-01-11T07:49:27.144Z,97939.63
2023-01-11T07:51:57.267Z,97942.78
2023-01-11T07:54:30.130Z,97948.25
2023-01-11T07:57:00.324Z,97963.22
2023-01-11T07:59:42.735Z,97957.13
2023-01-11T08:02:14.317Z,97953.56
2023-01-11T08:04:44.599Z,97952.19
2023-01-11T08:07:14.884Z,97954.28
2023-01-11T08:09:47.757Z,97948.47
2023-01-11T08:12:30.567Z,97952.16
2023-01-11T08:15:00.712Z,97955.13
2023-01-11T08:17:30.871Z,97965.06
2023-01-11T08:20:01.458Z,97971.38
2023-01-11T08:22:31.496Z,97975.72
2023-01-11T08:25:04.232Z,97977.13
2023-01-11T08:27:34.359Z,97974.75
2023-01-11T08:30:04.545Z,97968.88
2023-01-11T08:32:34.597Z,97968.16
2023-01-11T08:35:04.724Z,97966.25
2023-01-11T08:37:34.997Z,97972.78
2023-01-11T08:40:09.619Z,97973.88
2023-01-11T08:42:39.659Z,97969.03
2023-01-11T08:45:11.433Z,97972.47
2023-01-11T08:47:41.524Z,97981.00
2023-01-11T08:50:16.328Z,97981.66
2023-01-11T08:52:46.700Z,97982.16
2023-01-11T08:55:20.118Z,97983.78
2023-01-11T08:57:50.385Z,97978.31
2023-01-11T09:00:23.014Z,97973.25
2023-01-11T09:02:53.387Z,97969.22
2023-01-11T09:05:24.859Z,97963.97
2023-01-11T09:07:57.798Z,97963.91
2023-01-11T09:10:30.531Z,97957.03
2023-01-11T09:13:01.786Z,97967.31
2023-01-11T09:15:32.447Z,97961.84
2023-01-11T09:18:03.409Z,97964.25
2023-01-11T09:20:34.108Z,97967.28
2023-01-11T09:23:04.253Z,97976.19
2023-01-11T09:25:37.276Z,97969.03
2023-01-11T09:28:08.840Z,97963.78
2023-01-11T09:30:39.388Z,97961.63
2023-01-11T09:33:10.170Z,97963.16
2023-01-11T09:35:42.942Z,97966.16
2023-01-11T09:38:13.058Z,97968.72
2023-01-11T09:43:48.358Z,97967.84
2023-01-11T09:46:18.694Z,97969.44
2023-01-11T09:48:58.213Z,97957.28
2023-01-11T09:51:37.580Z,97958.69
2023-01-11T09:54:10.789Z,97970.28
2023-01-11T09:56:52.368Z,97963.22
2023-01-11T09:59:35.006Z,97952.44
2023-01-11T10:02:17.433Z,97958.13
2023-01-11T10:18:22.776Z,97939.75
2023-01-11T10:20:41.022Z,97953.06
2023-01-11T10:23:28.807Z,97944.84
2023-01-11T10:26:05.046Z,97941.31
2023-01-11T10:28:55.127Z,97941.69
2023-01-11T10:31:43.949Z,97940.31
2023-01-11T10:37:46.745Z,97937.41
2023-01-11T10:43:21.917Z,97930.72
2023-01-11T10:45:55.957Z,97935.84
2023-01-11T10:48:33.277Z,97927.22
2023-01-11T10:51:16.409Z,97933.50
2023-01-11T10:54:14.438Z,97929.19
2023-01-11T11:02:59.217Z,97931.09
2023-01-11T11:05:57.024Z,97923.28
2023-01-11T11:08:36.731Z,97923.84
2023-01-11T11:11:16.445Z,97922.47
2023-01-11T11:19:32.526Z,97917.19
2023-01-11T11:30:38.454Z,97908.75
2023-01-11T11:46:20.149Z,97893.06
2023-01-11T11:51:37.287Z,97890.34
2023-01-11T11:54:07.631Z,97886.59
2023-01-11T11:59:48.035Z,97886.41
2023-01-11T12:02:30.548Z,97886.41
2023-01-11T12:10:34.906Z,97873.44
2023-01-11T12:13:06.358Z,97880.13
2023-01-11T12:15:37.783Z,97878.16
2023-01-11T12:18:27.698Z,97874.84
2023-01-11T12:20:58.323Z,97874.03
2023-01-11T12:23:29.618Z,97876.22
2023-01-11T12:26:35.583Z,97868.56
2023-01-11T12:35:43.691Z,97869.34
2023-01-11T12:38:33.124Z,97864.81
2023-01-11T12:44:15.555Z,97869.75
2023-01-11T12:50:03.128Z,97875.03
2023-01-11T12:53:19.014Z,97881.69
2023-01-11T12:59:24.283Z,97880.50
2023-01-11T13:05:15.226Z,97889.84
2023-01-11T13:08:06.445Z,97881.16
2023-01-11T13:13:34.639Z,97881.84
2023-01-11T13:16:14.244Z,97886.09
2023-01-11T13:24:26.308Z,97890.66
2023-01-11T13:29:45.790Z,97893.34
2023-01-11T13:35:21.701Z,97892.03
2023-01-11T13:38:01.405Z,97889.69
2023-01-11T13:40:38.393Z,97896.44
2023-01-11T13:46:16.517Z,97900.28
2023-01-11T13:51:37.291Z,97913.06
2023-01-11T13:57:18.374Z,97915.97
2023-01-11T13:59:55.935Z,97910.22
2023-01-11T14:05:25.293Z,97930.75
2023-01-11T14:08:17.800Z,97937.81
2023-01-11T14:14:30.612Z,97937.38
2023-01-11T14:17:31.575Z,97946.25
2023-01-11T14:23:12.053Z,97963.06
2023-01-11T14:29:31.912Z,97974.81
2023-01-11T14:35:41.334Z,97983.84
2023-01-11T14:38:57.144Z,97995.44
2023-01-11T14:50:30.037Z,98010.97
2023-01-11T14:55:49.272Z,98021.84
2023-01-11T14:58:26.612Z,98026.09
2023-01-11T15:04:23.515Z,98031.63
2023-01-11T15:06:59.007Z,98042.38
2023-01-11T15:12:38.203Z,98035.13
2023-01-11T15:15:21.463Z,98055.25
2023-01-11T15:23:49.479Z,98057.09
2023-01-11T15:29:25.547Z,98062.34
2023-01-11T15:32:19.451Z,98070.53
2023-01-11T15:37:53.909Z,98080.59
2023-01-11T15:40:28.699Z,98079.34
2023-01-11T16:00:02.266Z,98114.44
2023-01-11T16:06:18.431Z,98132.09
2023-01-11T16:15:35.928Z,98145.44
2023-01-11T16:21:23.113Z,98153.56
2023-01-11T16:23:53.272Z,98173.88
2023-01-11T16:34:50.357Z,98200.78
2023-01-11T16:37:30.070Z,98202.34
2023-01-11T16:43:00.997Z,98215.03
2023-01-11T16:45:45.927Z,98221.56
2023-01-11T16:48:20.542Z,98221.13
2023-01-11T16:53:59.870Z,98227.16
2023-01-11T16:56:30.672Z,98227.09
2023-01-11T17:02:32.038Z,98224.94
2023-01-11T17:05:02.153Z,98238.13
2023-01-11T17:07:33.633Z,98244.44
2023-01-11T17:10:31.849Z,98248.28
2023-01-11T17:19:10.989Z,98258.94
2023-01-11T17:21:43.161Z,98264.88
2023-01-11T17:30:00.756Z,98278.16
2023-01-11T17:32:40.824Z,98268.97
2023-01-11T17:35:35.392Z,98277.22
2023-01-11T17:40:48.565Z,98286.91
2023-01-11T17:43:38.145Z,98290.88
2023-01-11T17:46:10.192Z,98289.63
2023-01-11T17:48:40.255Z,98298.78
2023-01-11T17:51:10.404Z,98299.56
2023-01-11T17:53:40.696Z,98300.03
2023-01-11T18:02:31.689Z,98319.56
2023-01-11T18:05:02.347Z,98325.28
2023-01-11T18:10:25.695Z,98322.19
2023-01-11T18:12:58.019Z,98322.34
2023-01-11T18:15:34.289Z,98318.84
2023-01-11T18:23:33.643Z,98339.59
2023-01-11T18:26:44.518Z,98341.81
2023-01-11T18:29:23.544Z,98364.00
2023-01-11T18:31:53.794Z,98360.75
2023-01-11T18:34:23.882Z,98343.16
2023-01-11T18:37:00.940Z,98347.66
2023-01-11T18:39:33.589Z,98343.06
2023-01-11T18:42:17.734Z,98347.50
2023-01-11T18:44:49.915Z,98341.97
2023-01-11T18:47:23.549Z,98350.94
2023-01-11T18:55:23.017Z,98340.50
2023-01-11T18:57:53.356Z,98353.63
2023-01-11T19:00:24.361Z,98368.44
2023-01-11T19:02:54.469Z,98362.75
2023-01-11T19:05:24.764Z,98367.59
2023-01-11T19:07:54.951Z,98359.66
2023-01-11T19:10:27.604Z,98364.97
2023-01-11T19:12:57.862Z,98369.81
2023-01-11T19:15:28.199Z,98375.78
2023-01-11T19:17:58.211Z,98381.63
2023-01-11T19:20:28.227Z,98381.22
2023-01-11T19:22:58.222Z,98385.81
2023-01-11T19:25:31.064Z,98387.97
2023-01-11T19:28:01.199Z,98388.28
2023-01-11T19:30:31.285Z,98383.66
2023-01-11T19:33:01.435Z,98390.75
2023-01-11T19:35:31.646Z,98393.94
2023-01-11T19:40:45.140Z,98389.34
2023-01-11T19:43:15.270Z,98389.09
2023-01-11T19:45:45.292Z,98391.63
2023-01-11T19:48:15.640Z,98396.50
2023-01-11T19:50:45.711Z,98408.66
2023-01-11T19:53:15.816Z,98416.88
2023-01-11T19:55:48.425Z,98416.91
2023-01-11T19:58:18.423Z,98416.91
2023-01-11T20:00:49.089Z,98407.56
2023-01-11T20:03:19.131Z,98400.97
2023-01-11T20:05:49.707Z,98404.34
2023-01-11T20:08:22.429Z,98407.72
2023-01-11T20:10:55.123Z,98412.72
2023-01-11T20:13:25.325Z,98407.47
2023-01-11T20:15:55.331Z,98413.00
2023-01-11T20:18:25.491Z,98415.16
2023-01-11T20:20:58.590Z,98426.31
2023-01-11T20:23:28.957Z,98430.75
2023-01-11T20:26:07.047Z,98429.75
2023-01-11T20:28:37.354Z,98432.13
2023-01-11T20:31:10.740Z,98439.63
2023-01-11T20:33:41.086Z,98438.25
2023-01-11T20:36:17.877Z,98435.88
2023-01-11T20:38:49.317Z,98430.28
2023-01-11T20:41:39.738Z,98433.81
2023-01-11T20:46:55.615Z,98443.06
2023-01-11T20:49:27.787Z,98440.94
2023-01-11T20:51:58.073Z,98439.66
2023-01-11T20:54:28.272Z,98450.53
2023-01-11T20:59:40.543Z,98440.81
2023-01-11T21:02:13.699Z,98442.59
2023-01-11T21:04:43.802Z,98435.97
2023-01-11T21:07:13.930Z,98445.28
2023-01-11T21:09:43.991Z,98448.34
2023-01-11T21:12:14.147Z,98445.44
2023-01-11T21:14:47.752Z,98443.19
2023-01-11T21:17:19.315Z,98450.94
2023-01-11T21:19:50.558Z,98461.28
2023-01-11T21:22:20.596Z,98456.13
2023-01-11T21:24:50.611Z,98453.47
2023-01-11T21:27:20.823Z,98452.28
2023-01-11T21:29:53.562Z,98457.59
2023-01-11T21:32:23.659Z,98460.50
2023-01-11T21:34:53.821Z,98465.13
2023-01-11T21:37:24.940Z,98453.91
2023-01-11T21:39:55.138Z,98458.66
2023-01-11T21:42:25.147Z,98461.84
2023-01-11T21:44:58.029Z,98458.00
2023-01-11T21:47:28.072Z,98464.34
2023-01-11T21:49:58.358Z,98467.28
2023-01-11T21:52:28.440Z,98462.38
2023-01-11T21:54:58.440Z,98465.31
2023-01-11T21:57:28.461Z,98456.53
2023-01-11T22:00:01.223Z,98464.22
2023-01-11T22:02:31.342Z,98462.75
2023-01-11T22:05:01.410Z,98453.75
2023-01-11T22:07:32.193Z,98453.06
2023-01-11T22:10:05.791Z,98445.94
2023-01-11T22:12:37.083Z,98431.88
2023-01-11T22:15:11.845Z,98436.91
2023-01-11T22:17:42.117Z,98443.56
2023-01-11T22:20:15.345Z,98434.94
2023-01-11T22:22:45.448Z,98438.25
2023-01-11T22:25:15.595Z,98439.16
2023-01-11T22:27:45.624Z,98440.38
2023-01-11T22:30:20.025Z,98440.78
2023-01-11T22:32:50.284Z,98453.09
2023-01-11T22:35:20.356Z,98463.72
2023-01-11T22:37:52.080Z,98469.81
2023-01-11T22:40:22.451Z,98469.03
2023-01-11T22:42:52.442Z,98475.75
2023-01-11T22:45:25.083Z,98472.59
2023-01-11T22:47:55.310Z,98479.47
2023-01-11T22:50:25.331Z,98475.38
2023-01-11T22:52:55.659Z,98479.72
2023-01-11T22:55:25.635Z,98475.88
2023-01-11T22:57:56.082Z,98474.03
2023-01-11T23:00:28.920Z,98476.16
2023-01-11T23:02:59.729Z,98472.69
2023-01-11T23:05:29.976Z,98478.81
2023-01-11T23:08:00.093Z,98473.78
2023-01-11T23:10:30.401Z,98479.63
2023-01-11T23:16:10.799Z,98476.44
2023-01-11T23:18:40.799Z,98466.06
2023-01-11T23:21:11.467Z,98471.66
2023-01-11T23:23:41.552Z,98472.97
2023-01-11T23:26:12.330Z,98462.91
2023-01-11T23:28:42.803Z,98467.13
2023-01-11T23:31:19.416Z,98470.47
2023-01-11T23:36:36.518Z,98484.00
2023-01-11T23:39:08.095Z,98465.81
2023-01-11T23:44:39.494Z,98465.28
2023-01-11T23:47:22.040Z,98460.91
2023-01-11T23:49:55.509Z,98458.41
2023-01-11T23:52:28.148Z,98459.19
2023-01-11T23:54:58.764Z,98457.31
2023-01-11T23:57:29.502Z,98449.13
